createdAt,value
2016-08-25T00:00:34.704Z,19.66
2016-08-25T00:01:34.514Z,19.56
2016-08-25T00:02:34.520Z,19.66
2016-08-25T00:03:34.526Z,19.59
2016-08-25T00:04:34.545Z,19.7
2016-08-25T00:05:34.560Z,19.64
2016-08-25T00:06:34.530Z,19.63
2016-08-25T00:07:34.530Z,19.62
2016-08-25T00:08:35.241Z,19.64
2016-08-25T00:09:34.535Z,19.59
2016-08-25T00:10:34.543Z,19.55
2016-08-25T00:11:34.536Z,19.54
2016-08-25T00:12:34.541Z,19.52
2016-08-25T00:13:34.562Z,19.47
2016-08-25T00:14:34.560Z,19.39
2016-08-25T00:15:35.268Z,19.51
2016-08-25T00:16:34.563Z,19.4
2016-08-25T00:17:34.562Z,19.3
2016-08-25T00:18:34.565Z,19.31
2016-08-25T00:19:34.564Z,19.26
2016-08-25T00:20:34.578Z,19.31
2016-08-25T00:21:34.561Z,19.37
2016-08-25T00:22:34.565Z,19.27
2016-08-25T00:23:34.569Z,19.27
2016-08-25T00:24:34.577Z,19.24
2016-08-25T00:25:34.576Z,19.36
2016-08-25T00:26:34.581Z,19.26
2016-08-25T00:27:34.582Z,19.24
2016-08-25T00:28:34.588Z,19.26
2016-08-25T00:29:34.581Z,19.24
2016-08-25T00:30:34.600Z,19.22
2016-08-25T00:31:34.608Z,19.26
2016-08-25T00:32:34.587Z,19.29
2016-08-25T00:33:34.591Z,19.24
2016-08-25T00:34:34.601Z,19.24
2016-08-25T00:35:34.619Z,19.16
2016-08-25T00:36:34.598Z,19.16
2016-08-25T00:37:34.601Z,19.09
2016-08-25T00:38:34.604Z,19.08
2016-08-25T00:39:34.607Z,19.12
2016-08-25T00:40:34.629Z,19.16
2016-08-25T00:41:34.604Z,19.09
2016-08-25T00:42:34.610Z,19.04
2016-08-25T00:43:34.610Z,19.04
2016-08-25T00:44:34.611Z,19.07
2016-08-25T00:45:34.672Z,19.07
2016-08-25T00:46:34.621Z,18.99
2016-08-25T00:47:34.623Z,18.93
2016-08-25T00:48:34.623Z,19
2016-08-25T00:49:34.627Z,18.86
2016-08-25T00:50:34.684Z,18.81
2016-08-25T00:51:34.635Z,18.84
2016-08-25T00:52:34.629Z,18.83
2016-08-25T00:53:34.651Z,18.86
2016-08-25T00:54:34.639Z,18.83
2016-08-25T00:55:34.637Z,18.81
2016-08-25T00:56:34.655Z,18.74
2016-08-25T00:57:34.656Z,18.77
2016-08-25T00:58:34.649Z,18.71
2016-08-25T00:59:34.661Z,18.74
2016-08-25T01:00:34.655Z,18.66
2016-08-25T01:01:35.360Z,18.71
2016-08-25T01:02:34.658Z,18.66
2016-08-25T01:03:34.662Z,18.7
2016-08-25T01:04:34.690Z,18.71
2016-08-25T01:05:34.661Z,18.71
2016-08-25T01:06:34.670Z,18.63
2016-08-25T01:07:34.674Z,18.68
2016-08-25T01:08:34.669Z,18.7
2016-08-25T01:09:34.683Z,18.65
2016-08-25T01:10:34.747Z,18.68
2016-08-25T01:11:34.672Z,18.65
2016-08-25T01:12:34.676Z,18.74
2016-08-25T01:13:34.682Z,18.68
2016-08-25T01:14:34.682Z,18.7
2016-08-25T01:15:34.752Z,18.7
2016-08-25T01:16:34.697Z,18.68
2016-08-25T01:17:35.395Z,18.65
2016-08-25T01:18:34.696Z,18.63
2016-08-25T01:19:34.698Z,18.65
2016-08-25T01:20:34.698Z,18.65
2016-08-25T01:21:34.701Z,18.58
2016-08-25T01:22:34.699Z,18.62
2016-08-25T01:23:34.707Z,18.55
2016-08-25T01:24:34.746Z,18.5
2016-08-25T01:25:34.749Z,18.56
2016-08-25T01:26:34.704Z,18.59
2016-08-25T01:27:34.706Z,18.44
2016-08-25T01:28:34.710Z,18.41
2016-08-25T01:29:34.712Z,18.52
2016-08-25T01:30:34.725Z,18.5
2016-08-25T01:31:34.722Z,18.49
2016-08-25T01:32:34.720Z,18.44
2016-08-25T01:33:34.725Z,18.45
2016-08-25T01:34:34.721Z,18.38
2016-08-25T01:35:34.721Z,18.44
2016-08-25T01:36:34.728Z,18.37
2016-08-25T01:37:34.725Z,18.47
2016-08-25T01:38:34.727Z,18.34
2016-08-25T01:39:34.785Z,18.26
2016-08-25T01:40:34.737Z,18.25
2016-08-25T01:41:34.741Z,18.31
2016-08-25T01:42:34.741Z,18.29
2016-08-25T01:43:34.743Z,18.37
2016-08-25T01:44:34.746Z,18.31
2016-08-25T01:45:34.759Z,18.26
2016-08-25T01:46:34.746Z,18.34
2016-08-25T01:47:34.756Z,18.29
2016-08-25T01:48:34.755Z,18.29
2016-08-25T01:49:34.761Z,18.29
2016-08-25T01:50:34.762Z,18.22
2016-08-25T01:51:34.766Z,18.26
2016-08-25T01:52:34.764Z,18.2
2016-08-25T01:53:35.471Z,18.18
2016-08-25T01:54:34.765Z,18.16
2016-08-25T01:55:34.822Z,18.13
2016-08-25T01:56:34.765Z,18.19
2016-08-25T01:57:34.779Z,18.13
2016-08-25T01:58:34.824Z,18.11
2016-08-25T01:59:34.832Z,18.22
2016-08-25T02:00:34.938Z,18.11
2016-08-25T02:01:34.787Z,18.16
2016-08-25T02:02:34.783Z,18.05
2016-08-25T02:03:34.786Z,18.16
2016-08-25T02:04:34.788Z,18.05
2016-08-25T02:05:34.817Z,18.15
2016-08-25T02:06:34.788Z,18.18
2016-08-25T02:07:34.790Z,18.04
2016-08-25T02:08:34.789Z,18.04
2016-08-25T02:09:34.790Z,18.04
2016-08-25T02:10:34.799Z,18.01
2016-08-25T02:11:34.803Z,18.03
2016-08-25T02:12:34.801Z,18.07
2016-08-25T02:13:34.805Z,18.07
2016-08-25T02:14:34.810Z,18.04
2016-08-25T02:15:34.828Z,17.98
2016-08-25T02:16:34.805Z,18.01
2016-08-25T02:17:34.804Z,18.07
2016-08-25T02:18:34.813Z,18.08
2016-08-25T02:19:34.819Z,18.04
2016-08-25T02:20:34.853Z,18.03
2016-08-25T02:21:34.809Z,18.08
2016-08-25T02:22:34.820Z,18.04
2016-08-25T02:23:34.822Z,18
2016-08-25T02:24:34.814Z,17.98
2016-08-25T02:25:34.860Z,18.03
2016-08-25T02:26:34.825Z,17.92
2016-08-25T02:27:34.832Z,17.9
2016-08-25T02:28:34.834Z,17.9
2016-08-25T02:29:34.821Z,18
2016-08-25T02:30:34.831Z,17.94
2016-08-25T02:31:34.859Z,17.94
2016-08-25T02:32:34.916Z,17.9
2016-08-25T02:33:34.929Z,17.87
2016-08-25T02:34:35.159Z,17.87
2016-08-25T02:35:34.854Z,17.92
2016-08-25T02:36:34.840Z,18
2016-08-25T02:37:34.842Z,17.9
2016-08-25T02:38:34.837Z,17.95
2016-08-25T02:39:34.848Z,17.87
2016-08-25T02:40:34.876Z,17.9
2016-08-25T02:41:34.858Z,17.89
2016-08-25T02:42:34.849Z,17.95
2016-08-25T02:43:34.862Z,17.79
2016-08-25T02:44:34.851Z,17.82
2016-08-25T02:45:34.883Z,17.82
2016-08-25T02:46:34.855Z,17.83
2016-08-25T02:47:34.857Z,17.83
2016-08-25T02:48:34.858Z,17.78
2016-08-25T02:49:34.864Z,17.78
2016-08-25T02:50:34.933Z,17.78
2016-08-25T02:51:34.863Z,17.8
2016-08-25T02:52:34.864Z,17.82
2016-08-25T02:53:34.867Z,17.79
2016-08-25T02:54:34.886Z,17.82
2016-08-25T02:55:34.935Z,17.79
2016-08-25T02:56:34.880Z,17.83
2016-08-25T02:57:34.870Z,17.83
2016-08-25T02:58:34.884Z,17.78
2016-08-25T02:59:34.888Z,17.85
2016-08-25T03:00:34.991Z,17.78
2016-08-25T03:01:34.883Z,17.79
2016-08-25T03:02:34.883Z,17.83
2016-08-25T03:03:34.882Z,17.78
2016-08-25T03:04:34.885Z,17.8
2016-08-25T03:05:34.896Z,17.82
2016-08-25T03:06:34.887Z,17.82
2016-08-25T03:07:34.893Z,17.78
2016-08-25T03:08:34.892Z,17.83
2016-08-25T03:09:34.901Z,17.79
2016-08-25T03:10:34.989Z,17.72
2016-08-25T03:11:34.913Z,17.74
2016-08-25T03:12:34.902Z,17.72
2016-08-25T03:13:34.903Z,17.68
2016-08-25T03:14:34.900Z,17.7
2016-08-25T03:15:34.905Z,17.74
2016-08-25T03:16:34.910Z,17.7
2016-08-25T03:17:34.906Z,17.72
2016-08-25T03:18:34.913Z,17.67
2016-08-25T03:19:34.922Z,17.72
2016-08-25T03:20:34.978Z,17.65
2016-08-25T03:21:34.922Z,17.6
2016-08-25T03:22:34.918Z,17.64
2016-08-25T03:23:34.940Z,17.63
2016-08-25T03:24:34.943Z,17.59
2016-08-25T03:25:34.943Z,17.68
2016-08-25T03:26:34.924Z,17.67
2016-08-25T03:27:34.943Z,17.65
2016-08-25T03:28:34.924Z,17.67
2016-08-25T03:29:34.928Z,17.57
2016-08-25T03:30:34.930Z,17.6
2016-08-25T03:31:34.946Z,17.52
2016-08-25T03:32:34.947Z,17.56
2016-08-25T03:33:34.948Z,17.46
2016-08-25T03:34:35.650Z,17.52
2016-08-25T03:35:34.950Z,17.48
2016-08-25T03:36:34.947Z,17.45
2016-08-25T03:37:34.950Z,17.39
2016-08-25T03:38:34.950Z,17.56
2016-08-25T03:39:34.953Z,17.42
2016-08-25T03:40:34.963Z,17.36
2016-08-25T03:41:34.952Z,17.41
2016-08-25T03:42:34.949Z,17.41
2016-08-25T03:43:34.952Z,17.41
2016-08-25T03:44:34.956Z,17.3
2016-08-25T03:45:35.035Z,17.3
2016-08-25T03:46:34.954Z,17.39
2016-08-25T03:47:34.960Z,17.38
2016-08-25T03:48:34.956Z,17.31
2016-08-25T03:49:34.958Z,17.33
2016-08-25T03:50:34.976Z,17.3
2016-08-25T03:51:34.960Z,17.31
2016-08-25T03:52:34.965Z,17.23
2016-08-25T03:53:34.968Z,17.2
2016-08-25T03:54:34.968Z,17.2
2016-08-25T03:55:35.040Z,17.26
2016-08-25T03:56:34.979Z,17.19
2016-08-25T03:57:34.970Z,17.23
2016-08-25T03:58:34.976Z,17.24
2016-08-25T03:59:34.981Z,17.2
2016-08-25T04:00:35.782Z,17.23
2016-08-25T04:01:34.977Z,17.24
2016-08-25T04:02:34.986Z,17.24
2016-08-25T04:03:34.995Z,17.26
2016-08-25T04:04:34.986Z,17.22
2016-08-25T04:05:34.989Z,17.22
2016-08-25T04:06:34.990Z,17.16
2016-08-25T04:07:34.987Z,17.16
2016-08-25T04:08:34.991Z,17.11
2016-08-25T04:09:34.990Z,17.15
2016-08-25T04:10:34.990Z,17.11
2016-08-25T04:11:34.995Z,17.15
2016-08-25T04:12:35.004Z,17.11
2016-08-25T04:13:34.993Z,17.14
2016-08-25T04:14:35.004Z,17.16
2016-08-25T04:15:35.031Z,17.16
2016-08-25T04:16:34.998Z,17.16
2016-08-25T04:17:35.002Z,17.2
2016-08-25T04:18:35.000Z,17.15
2016-08-25T04:19:35.013Z,17.14
2016-08-25T04:20:35.013Z,17.16
2016-08-25T04:21:35.029Z,17.16
2016-08-25T04:22:35.013Z,17.14
2016-08-25T04:23:35.008Z,17.19
2016-08-25T04:24:35.011Z,17.19
2016-08-25T04:25:35.010Z,17.12
2016-08-25T04:26:35.016Z,17.22
2016-08-25T04:27:35.107Z,17.16
2016-08-25T04:28:35.017Z,17.16
2016-08-25T04:29:35.036Z,17.16
2016-08-25T04:30:35.033Z,17.22
2016-08-25T04:31:35.021Z,17.2
2016-08-25T04:32:35.034Z,17.19
2016-08-25T04:33:35.024Z,17.19
2016-08-25T04:34:35.037Z,17.2
2016-08-25T04:35:35.034Z,17.2
2016-08-25T04:36:35.038Z,17.2
2016-08-25T04:37:35.037Z,17.22
2016-08-25T04:38:35.037Z,17.16
2016-08-25T04:39:35.041Z,17.24
2016-08-25T04:40:35.055Z,17.16
2016-08-25T04:41:35.042Z,17.22
2016-08-25T04:42:35.045Z,17.19
2016-08-25T04:43:35.042Z,17.2
2016-08-25T04:44:35.761Z,17.27
2016-08-25T04:45:35.099Z,17.29
2016-08-25T04:46:35.051Z,17.26
2016-08-25T04:47:35.048Z,17.3
2016-08-25T04:48:35.046Z,17.26
2016-08-25T04:49:35.045Z,17.33
2016-08-25T04:50:35.123Z,17.27
2016-08-25T04:51:35.050Z,17.29
2016-08-25T04:52:35.057Z,17.23
2016-08-25T04:53:35.053Z,17.24
2016-08-25T04:54:35.062Z,17.27
2016-08-25T04:55:35.057Z,17.22
2016-08-25T04:56:35.058Z,17.24
2016-08-25T04:57:35.060Z,17.19
2016-08-25T04:58:35.066Z,17.26
2016-08-25T04:59:35.773Z,17.33
2016-08-25T05:00:35.157Z,17.39
2016-08-25T05:01:35.069Z,17.52
2016-08-25T05:02:35.068Z,17.74
2016-08-25T05:03:35.066Z,18.08
2016-08-25T05:04:35.075Z,18.49
2016-08-25T05:05:35.103Z,18.81
2016-08-25T05:06:35.073Z,19.3
2016-08-25T05:07:35.079Z,19.67
2016-08-25T05:08:35.080Z,20.02
2016-08-25T05:09:35.093Z,20.47
2016-08-25T05:10:35.095Z,20.72
2016-08-25T05:11:35.110Z,20.84
2016-08-25T05:12:35.095Z,20.96
2016-08-25T05:13:35.096Z,21.06
2016-08-25T05:14:35.100Z,21.03
2016-08-25T05:15:35.104Z,20.93
2016-08-25T05:16:35.097Z,20.87
2016-08-25T05:17:35.110Z,20.9
2016-08-25T05:18:35.108Z,20.97
2016-08-25T05:19:35.126Z,21.22
2016-08-25T05:20:35.161Z,21.5
2016-08-25T05:21:35.115Z,21.72
2016-08-25T05:22:35.116Z,21.98
2016-08-25T05:23:35.123Z,22.33
2016-08-25T05:24:35.838Z,22.53
2016-08-25T05:25:35.175Z,22.62
2016-08-25T05:26:35.135Z,22.85
2016-08-25T05:27:35.156Z,22.91
2016-08-25T05:28:35.143Z,22.81
2016-08-25T05:29:35.147Z,22.59
2016-08-25T05:30:35.207Z,22.29
2016-08-25T05:31:35.160Z,21.92
2016-08-25T05:32:35.164Z,21.66
2016-08-25T05:33:35.163Z,21.46
2016-08-25T05:34:35.213Z,21.3
2016-08-25T05:35:35.173Z,21.35
2016-08-25T05:36:35.187Z,21.35
2016-08-25T05:37:35.187Z,21.6
2016-08-25T05:38:35.190Z,21.92
2016-08-25T05:39:35.187Z,22.26
2016-08-25T05:40:35.988Z,22.47
2016-08-25T05:41:35.198Z,22.75
2016-08-25T05:42:35.198Z,22.99
2016-08-25T05:43:35.207Z,23.51
2016-08-25T05:44:35.203Z,23.66
2016-08-25T05:45:35.213Z,23.78
2016-08-25T05:46:35.215Z,24.28
2016-08-25T05:47:35.214Z,24.69
2016-08-25T05:48:35.226Z,25.04
2016-08-25T05:49:35.231Z,25.43
2016-08-25T05:50:35.274Z,25.4
2016-08-25T05:51:35.239Z,25.43
2016-08-25T05:52:35.276Z,25.32
2016-08-25T05:53:35.255Z,25.31
2016-08-25T05:54:35.262Z,25.5
2016-08-25T05:55:35.282Z,25.85
2016-08-25T05:56:35.262Z,26.23
2016-08-25T05:57:35.283Z,26.53
2016-08-25T05:58:35.289Z,26.52
2016-08-25T05:59:35.281Z,26.26
2016-08-25T06:00:35.462Z,25.77
2016-08-25T06:01:35.293Z,25.26
2016-08-25T06:02:35.299Z,24.78
2016-08-25T06:03:35.306Z,23.95
2016-08-25T06:04:35.340Z,23.39
2016-08-25T06:05:35.334Z,22.8
2016-08-25T06:06:35.318Z,22.47
2016-08-25T06:07:35.327Z,22.17
2016-08-25T06:08:35.350Z,21.83
2016-08-25T06:09:35.342Z,21.57
2016-08-25T06:10:35.353Z,21.22
2016-08-25T06:11:35.346Z,20.96
2016-08-25T06:12:35.353Z,20.74
2016-08-25T06:13:35.365Z,20.52
2016-08-25T06:14:35.361Z,20.47
2016-08-25T06:15:35.361Z,20.51
2016-08-25T06:16:35.385Z,20.36
2016-08-25T06:17:35.396Z,20.43
2016-08-25T06:18:35.392Z,20.48
2016-08-25T06:19:35.388Z,20.67
2016-08-25T06:20:36.128Z,21.12
2016-08-25T06:21:35.388Z,21.54
2016-08-25T06:22:35.390Z,21.92
2016-08-25T06:23:35.405Z,22.11
2016-08-25T06:24:36.109Z,22.33
2016-08-25T06:25:35.476Z,22.68
2016-08-25T06:26:35.410Z,23.06
2016-08-25T06:27:35.414Z,23.59
2016-08-25T06:28:35.416Z,24.13
2016-08-25T06:29:35.439Z,24.6
2016-08-25T06:30:35.450Z,24.98
2016-08-25T06:31:35.430Z,25.55
2016-08-25T06:32:35.443Z,25.6
2016-08-25T06:33:35.447Z,25.59
2016-08-25T06:34:35.614Z,25.65
2016-08-25T06:35:35.517Z,25.63
2016-08-25T06:36:35.456Z,25.93
2016-08-25T06:37:35.459Z,26.22
2016-08-25T06:38:35.478Z,26.56
2016-08-25T06:39:35.491Z,27.18
2016-08-25T06:40:35.502Z,27.74
2016-08-25T06:41:35.491Z,28.23
2016-08-25T06:42:35.512Z,28.57
2016-08-25T06:43:36.212Z,29.01
2016-08-25T06:44:35.507Z,29.34
2016-08-25T06:45:35.567Z,29.78
2016-08-25T06:46:35.527Z,30.24
2016-08-25T06:47:35.525Z,30.46
2016-08-25T06:48:35.542Z,30.31
2016-08-25T06:49:35.548Z,30.09
2016-08-25T06:50:35.547Z,30.02
2016-08-25T06:51:35.558Z,30.18
2016-08-25T06:52:35.566Z,30.44
2016-08-25T06:53:35.579Z,30.81
2016-08-25T06:54:35.581Z,31.15
2016-08-25T06:55:35.654Z,31.24
2016-08-25T06:56:35.596Z,31.44
2016-08-25T06:57:35.617Z,31.43
2016-08-25T06:58:35.610Z,31.58
2016-08-25T06:59:35.620Z,31.87
2016-08-25T07:00:35.686Z,31.89
2016-08-25T07:01:35.636Z,31.94
2016-08-25T07:02:36.357Z,32.16
2016-08-25T07:03:35.657Z,31.89
2016-08-25T07:04:35.674Z,31.84
2016-08-25T07:05:35.743Z,31.7
2016-08-25T07:06:35.684Z,31.51
2016-08-25T07:07:35.699Z,31.44
2016-08-25T07:08:35.713Z,31.73
2016-08-25T07:09:35.721Z,31.93
2016-08-25T07:10:35.790Z,32.09
2016-08-25T07:11:35.738Z,32.31
2016-08-25T07:12:35.768Z,32.43
2016-08-25T07:13:35.752Z,32.31
2016-08-25T07:14:35.783Z,32.19
2016-08-25T07:15:35.859Z,32.04
2016-08-25T07:16:35.785Z,31.89
2016-08-25T07:17:35.783Z,31.89
2016-08-25T07:18:35.787Z,31.87
2016-08-25T07:19:35.803Z,31.76
2016-08-25T07:20:35.824Z,31.46
2016-08-25T07:21:35.822Z,31.2
2016-08-25T07:22:35.838Z,31.05
2016-08-25T07:23:35.844Z,30.77
2016-08-25T07:24:36.558Z,30.51
2016-08-25T07:25:35.856Z,30.12
2016-08-25T07:26:35.865Z,29.24
2016-08-25T07:27:35.882Z,28.48
2016-08-25T07:28:35.882Z,27.64
2016-08-25T07:29:35.889Z,26.97
2016-08-25T07:30:35.898Z,26.43
2016-08-25T07:31:35.903Z,25.96
2016-08-25T07:32:35.914Z,25.66
2016-08-25T07:33:35.930Z,25.4
2016-08-25T07:34:35.927Z,25.17
2016-08-25T07:35:35.998Z,25.11
2016-08-25T07:36:35.948Z,25.21
2016-08-25T07:37:35.950Z,25.26
2016-08-25T07:38:35.951Z,25.72
2016-08-25T07:39:35.962Z,26.36
2016-08-25T07:40:36.009Z,27.08
2016-08-25T07:41:35.968Z,27.64
2016-08-25T07:42:35.979Z,28.07
2016-08-25T07:43:36.004Z,28.3
2016-08-25T07:44:35.988Z,28.41
2016-08-25T07:45:36.007Z,28.37
2016-08-25T07:46:36.004Z,28.62
2016-08-25T07:47:36.015Z,28.91
2016-08-25T07:48:36.018Z,29.02
2016-08-25T07:49:36.030Z,29.23
2016-08-25T07:50:36.068Z,29.76
2016-08-25T07:51:36.035Z,30.08
2016-08-25T07:52:36.043Z,30.19
2016-08-25T07:53:36.048Z,29.79
2016-08-25T07:54:36.067Z,29.5
2016-08-25T07:55:36.092Z,29.69
2016-08-25T07:56:36.077Z,29.79
2016-08-25T07:57:36.079Z,29.79
2016-08-25T07:58:36.103Z,29.98
2016-08-25T07:59:36.095Z,30.3
2016-08-25T08:00:36.150Z,30.61
2016-08-25T08:01:36.122Z,30.59
2016-08-25T08:02:36.116Z,30.81
2016-08-25T08:03:36.126Z,30.91
2016-08-25T08:04:36.139Z,31.07
2016-08-25T08:05:36.174Z,31.14
2016-08-25T08:06:36.151Z,31.31
2016-08-25T08:07:36.160Z,31.61
2016-08-25T08:08:36.168Z,31.92
2016-08-25T08:09:36.175Z,31.74
2016-08-25T08:10:36.890Z,31.81
2016-08-25T08:11:36.185Z,31.47
2016-08-25T08:12:36.196Z,31.76
2016-08-25T08:13:36.202Z,31.99
2016-08-25T08:14:36.212Z,32.33
2016-08-25T08:15:36.260Z,32.56
2016-08-25T08:16:36.228Z,32.3
2016-08-25T08:17:36.243Z,32.41
2016-08-25T08:18:36.243Z,32.43
2016-08-25T08:19:36.254Z,32.49
2016-08-25T08:20:36.277Z,32.7
2016-08-25T08:21:36.269Z,32.97
2016-08-25T08:22:36.284Z,33.2
2016-08-25T08:23:36.299Z,33.32
2016-08-25T08:24:36.307Z,33.24
2016-08-25T08:25:36.398Z,33.17
2016-08-25T08:26:37.031Z,33.02
2016-08-25T08:27:36.327Z,32.77
2016-08-25T08:28:36.555Z,32.73
2016-08-25T08:29:36.348Z,32.86
2016-08-25T08:30:36.427Z,32.6
2016-08-25T08:31:36.370Z,32.65
2016-08-25T08:32:36.375Z,32.74
2016-08-25T08:33:37.097Z,33.02
2016-08-25T08:34:36.583Z,33.3
2016-08-25T08:35:37.132Z,33.49
2016-08-25T08:36:36.418Z,33.31
2016-08-25T08:37:36.448Z,32.93
2016-08-25T08:38:36.443Z,32.49
2016-08-25T08:39:36.460Z,31.84
2016-08-25T08:40:36.455Z,31.21
2016-08-25T08:41:36.463Z,30.63
2016-08-25T08:42:36.474Z,30.19
2016-08-25T08:43:36.483Z,29.66
2016-08-25T08:44:37.225Z,29.17
2016-08-25T08:45:36.512Z,28.94
2016-08-25T08:46:36.516Z,28.57
2016-08-25T08:47:36.531Z,28.35
2016-08-25T08:48:36.528Z,28.19
2016-08-25T08:49:36.542Z,27.98
2016-08-25T08:50:36.584Z,27.8
2016-08-25T08:51:36.573Z,27.67
2016-08-25T08:52:36.576Z,27.6
2016-08-25T08:53:36.567Z,27.49
2016-08-25T08:54:36.578Z,27.37
2016-08-25T08:55:36.590Z,27.3
2016-08-25T08:56:36.595Z,27.21
2016-08-25T08:57:36.594Z,27.2
2016-08-25T08:58:36.600Z,27.22
2016-08-25T08:59:36.620Z,27.2
2016-08-25T09:00:36.726Z,27.3
2016-08-25T09:01:36.631Z,27.3
2016-08-25T09:02:36.636Z,27.33
2016-08-25T09:03:36.634Z,27.26
2016-08-25T09:04:36.639Z,27.26
2016-08-25T09:05:36.657Z,27.4
2016-08-25T09:06:36.654Z,27.37
2016-08-25T09:07:36.664Z,27.37
2016-08-25T09:08:36.667Z,27.4
2016-08-25T09:09:36.683Z,27.42
2016-08-25T09:10:36.717Z,27.39
2016-08-25T09:11:36.696Z,27.36
2016-08-25T09:12:36.699Z,27.39
2016-08-25T09:13:36.699Z,27.36
2016-08-25T09:14:36.705Z,27.26
2016-08-25T09:15:36.782Z,27.29
2016-08-25T09:16:36.712Z,27.26
2016-08-25T09:17:36.720Z,27.18
2016-08-25T09:18:36.748Z,27.12
2016-08-25T09:19:36.733Z,26.92
2016-08-25T09:20:36.747Z,26.84
2016-08-25T09:21:36.759Z,26.78
2016-08-25T09:22:36.758Z,26.66
2016-08-25T09:23:37.469Z,26.58
2016-08-25T09:24:37.474Z,26.63
2016-08-25T09:25:36.781Z,26.6
2016-08-25T09:26:36.776Z,26.71
2016-08-25T09:27:36.785Z,26.71
2016-08-25T09:28:36.785Z,26.75
2016-08-25T09:29:37.504Z,26.7
2016-08-25T09:30:36.795Z,26.62
2016-08-25T09:31:36.806Z,26.53
2016-08-25T09:32:36.812Z,26.56
2016-08-25T09:33:36.817Z,26.65
2016-08-25T09:34:37.050Z,26.85
2016-08-25T09:35:36.845Z,26.92
2016-08-25T09:36:37.534Z,27.07
2016-08-25T09:37:36.832Z,26.96
2016-08-25T09:38:36.846Z,26.93
2016-08-25T09:39:36.845Z,26.99
2016-08-25T09:40:36.850Z,27.03
2016-08-25T09:41:36.854Z,26.95
2016-08-25T09:42:36.858Z,27.08
2016-08-25T09:43:36.875Z,27.12
2016-08-25T09:44:36.874Z,27.08
2016-08-25T09:45:36.943Z,27.11
2016-08-25T09:46:36.892Z,27.15
2016-08-25T09:47:36.887Z,27.25
2016-08-25T09:48:36.891Z,27.26
2016-08-25T09:49:36.912Z,27.39
2016-08-25T09:50:36.953Z,27.44
2016-08-25T09:51:37.637Z,27.54
2016-08-25T09:52:37.637Z,27.58
2016-08-25T09:53:36.916Z,27.65
2016-08-25T09:54:36.923Z,27.73
2016-08-25T09:55:36.953Z,27.8
2016-08-25T09:56:37.658Z,27.7
2016-08-25T09:57:36.943Z,27.85
2016-08-25T09:58:36.945Z,27.83
2016-08-25T09:59:36.950Z,27.92
2016-08-25T10:00:36.973Z,27.89
2016-08-25T10:01:36.989Z,28.08
2016-08-25T10:02:36.980Z,28.08
2016-08-25T10:03:36.975Z,28.14
2016-08-25T10:04:36.979Z,28.19
2016-08-25T10:05:36.998Z,28.23
2016-08-25T10:06:36.994Z,28.22
2016-08-25T10:07:36.999Z,28.17
2016-08-25T10:08:37.721Z,28.15
2016-08-25T10:09:37.009Z,28.15
2016-08-25T10:10:37.050Z,28.02
2016-08-25T10:11:37.021Z,28.05
2016-08-25T10:12:37.032Z,28.1
2016-08-25T10:13:37.032Z,28.17
2016-08-25T10:14:37.037Z,28.22
2016-08-25T10:15:37.080Z,28.29
2016-08-25T10:16:37.053Z,28.32
2016-08-25T10:17:37.060Z,28.37
2016-08-25T10:18:37.075Z,28.39
2016-08-25T10:19:37.065Z,28.47
2016-08-25T10:20:37.100Z,28.42
2016-08-25T10:21:37.085Z,28.41
2016-08-25T10:22:37.083Z,28.49
2016-08-25T10:23:37.096Z,28.44
2016-08-25T10:24:37.096Z,28.42
2016-08-25T10:25:37.165Z,28.48
2016-08-25T10:26:37.813Z,28.48
2016-08-25T10:27:37.117Z,28.51
2016-08-25T10:28:37.119Z,28.59
2016-08-25T10:29:37.122Z,28.62
2016-08-25T10:30:37.173Z,28.59
2016-08-25T10:31:37.143Z,28.64
2016-08-25T10:32:37.143Z,28.75
2016-08-25T10:33:37.160Z,28.72
2016-08-25T10:34:37.338Z,28.72
2016-08-25T10:35:37.178Z,28.69
2016-08-25T10:36:37.171Z,28.64
2016-08-25T10:37:37.175Z,28.62
2016-08-25T10:38:37.182Z,28.63
2016-08-25T10:39:37.186Z,28.6
2016-08-25T10:40:37.197Z,28.69
2016-08-25T10:41:37.913Z,28.75
2016-08-25T10:42:37.212Z,28.78
2016-08-25T10:43:37.209Z,28.86
2016-08-25T10:44:37.219Z,28.97
2016-08-25T10:45:37.235Z,29.02
2016-08-25T10:46:37.234Z,29.08
2016-08-25T10:47:37.235Z,29.27
2016-08-25T10:48:37.246Z,29.27
2016-08-25T10:49:37.251Z,29.36
2016-08-25T10:50:37.249Z,29.27
2016-08-25T10:51:37.976Z,29.35
2016-08-25T10:52:37.271Z,29.39
2016-08-25T10:53:37.267Z,29.34
2016-08-25T10:54:37.322Z,29.39
2016-08-25T10:55:37.374Z,29.41
2016-08-25T10:56:37.994Z,29.44
2016-08-25T10:57:37.298Z,29.42
2016-08-25T10:58:37.300Z,29.41
2016-08-25T10:59:38.022Z,29.38
2016-08-25T11:00:37.377Z,29.32
2016-08-25T11:01:37.319Z,29.2
2016-08-25T11:02:37.324Z,29.29
2016-08-25T11:03:37.334Z,29.29
2016-08-25T11:04:37.348Z,29.2
2016-08-25T11:05:37.354Z,29.23
2016-08-25T11:06:37.362Z,29.35
2016-08-25T11:07:37.357Z,29.42
2016-08-25T11:08:37.362Z,29.51
2016-08-25T11:09:37.368Z,29.53
2016-08-25T11:10:37.381Z,29.5
2016-08-25T11:11:37.396Z,29.56
2016-08-25T11:12:37.393Z,29.71
2016-08-25T11:13:37.397Z,29.75
2016-08-25T11:14:37.397Z,29.75
2016-08-25T11:15:37.414Z,29.75
2016-08-25T11:16:37.412Z,29.71
2016-08-25T11:17:37.414Z,29.78
2016-08-25T11:18:37.424Z,29.82
2016-08-25T11:19:37.431Z,29.94
2016-08-25T11:20:37.436Z,29.98
2016-08-25T11:21:37.445Z,29.94
2016-08-25T11:22:37.463Z,29.94
2016-08-25T11:23:37.456Z,30.18
2016-08-25T11:24:37.460Z,30.21
2016-08-25T11:25:37.512Z,30.3
2016-08-25T11:26:37.472Z,30.37
2016-08-25T11:27:37.480Z,30.5
2016-08-25T11:28:37.486Z,30.44
2016-08-25T11:29:37.494Z,30.59
2016-08-25T11:30:37.516Z,30.61
2016-08-25T11:31:38.230Z,30.69
2016-08-25T11:32:37.517Z,30.81
2016-08-25T11:33:37.521Z,30.83
2016-08-25T11:34:37.525Z,30.92
2016-08-25T11:35:37.535Z,30.8
2016-08-25T11:36:37.605Z,30.84
2016-08-25T11:37:37.547Z,30.83
2016-08-25T11:38:37.562Z,30.84
2016-08-25T11:39:37.558Z,30.94
2016-08-25T11:40:38.272Z,30.84
2016-08-25T11:41:37.583Z,30.8
2016-08-25T11:42:37.576Z,30.88
2016-08-25T11:43:38.300Z,30.81
2016-08-25T11:44:37.592Z,30.87
2016-08-25T11:45:38.348Z,30.91
2016-08-25T11:46:37.622Z,31.03
2016-08-25T11:47:37.619Z,31.1
2016-08-25T11:48:38.331Z,31.28
2016-08-25T11:49:37.628Z,31.34
2016-08-25T11:50:37.745Z,31.54
2016-08-25T11:51:37.651Z,31.51
2016-08-25T11:52:37.685Z,31.64
2016-08-25T11:53:37.663Z,31.62
2016-08-25T11:54:38.378Z,31.69
2016-08-25T11:55:37.708Z,31.65
2016-08-25T11:56:37.691Z,31.65
2016-08-25T11:57:37.700Z,31.66
2016-08-25T11:58:37.695Z,31.65
2016-08-25T11:59:37.696Z,31.56
2016-08-25T12:00:37.940Z,31.69
2016-08-25T12:01:37.711Z,31.65
2016-08-25T12:02:37.747Z,31.77
2016-08-25T12:03:37.723Z,31.8
2016-08-25T12:04:37.755Z,31.8
2016-08-25T12:05:37.795Z,31.78
2016-08-25T12:06:37.755Z,31.81
2016-08-25T12:07:37.753Z,31.92
2016-08-25T12:08:37.757Z,31.89
2016-08-25T12:09:37.776Z,31.78
2016-08-25T12:10:37.773Z,31.84
2016-08-25T12:11:37.784Z,31.8
2016-08-25T12:12:37.789Z,31.78
2016-08-25T12:13:37.811Z,31.59
2016-08-25T12:14:37.804Z,31.64
2016-08-25T12:15:37.822Z,31.76
2016-08-25T12:16:37.817Z,31.8
2016-08-25T12:17:37.827Z,31.84
2016-08-25T12:18:37.830Z,31.93
2016-08-25T12:19:37.836Z,32
2016-08-25T12:20:37.847Z,32.09
2016-08-25T12:21:37.862Z,32.16
2016-08-25T12:22:37.858Z,32.19
2016-08-25T12:23:37.868Z,32.16
2016-08-25T12:24:37.876Z,32.3
2016-08-25T12:25:37.881Z,32.18
2016-08-25T12:26:37.890Z,32.16
2016-08-25T12:27:37.897Z,32.18
2016-08-25T12:28:37.905Z,32.16
2016-08-25T12:29:37.919Z,32.18
2016-08-25T12:30:37.974Z,32.29
2016-08-25T12:31:37.924Z,32.36
2016-08-25T12:32:37.930Z,32.36
2016-08-25T12:33:37.937Z,32.3
2016-08-25T12:34:37.948Z,32.14
2016-08-25T12:35:37.991Z,32.19
2016-08-25T12:36:37.962Z,32.18
2016-08-25T12:37:37.978Z,32.21
2016-08-25T12:38:37.978Z,32.18
2016-08-25T12:39:37.986Z,32.29
2016-08-25T12:40:37.988Z,32.34
2016-08-25T12:41:38.002Z,32.31
2016-08-25T12:42:38.011Z,32.27
2016-08-25T12:43:38.010Z,32.34
2016-08-25T12:44:38.019Z,32.26
2016-08-25T12:45:38.032Z,32.26
2016-08-25T12:46:38.050Z,32.21
2016-08-25T12:47:38.042Z,32.21
2016-08-25T12:48:38.062Z,32.07
2016-08-25T12:49:38.057Z,32.14
2016-08-25T12:50:38.129Z,32.11
2016-08-25T12:51:38.072Z,32.16
2016-08-25T12:52:38.076Z,32.21
2016-08-25T12:53:38.088Z,32.29
2016-08-25T12:54:38.092Z,32.29
2016-08-25T12:55:38.099Z,32.31